Abbott, MS

7:29 AM CDT on April 25, 2015 (GMT -0500)
WestWood II | | Change Station
CLOSE
Current Station
Personal Weather Station
Location: West Point, MS
Elevation: 240 ft
Nearby Weather Stations

Elev 240 ft 33.61 °N, 88.68 °W | Updated 7 seconds ago

Overcast
Overcast
61.9 °F
Feels Like 61.9 °F
N
0.0
Wind Variable Wind from South
Gusts 0.0 mph

Today
High -- | Low -- °F
--% Chance of Precip.
Yesterday
High -- | Low -- °F
Precip. -- in
6:12 AM 7:33 PM
Waxing Crescent, 45% visible
Pressure 29.76 in
Visibility 10.0 miles
Clouds Overcast 200 ft
Dew Point 60 °F
Humidity 94%
Rainfall 1.76 in
Snow Depth Not available.
UV 0 out of 12
Pollen 4.90 out of 12
Air Quality Not available.
Flu Activity No Activity
SPECI KCBM 251213Z AUTO 16005KT 10SM OVC002 17/17 A2976 RMK AO2 $

More Conditions Fewer Conditions

Pressure 29.76 in
Visibility 10.0 miles
Clouds Overcast 200 ft
Dew Point 60 °F
Humidity 94%
Rainfall 1.76 in
Snow Depth Not available.
UV 0 out of 12
Pollen 4.90 out of 12
Air Quality Not available.
Flu Activity No Activity
SPECI KCBM 251213Z AUTO 16005KT 10SM OVC002 17/17 A2976 RMK AO2 $

More Conditions Fewer Conditions

10-Day Weather Forecast

Almanac

Astronomy

Apr. 25, 2015 Rise Set
Actual Time
Civil Twilight
Nautical Twilight
Astronomical Twilight
Moon
Length of Visible Light
Length of Day
Tomorrow will be .
, % of the Moon is Illuminated

Today's Extremes

State Highs State Lows

Community

WunderPhotos

Upload Photos

1,816,645 photos uploaded!

WunderBlogs® & News

Nearby

Air Quality

  Air Quality AQ Index Pollutant
Not available.

Snow Depth

Station Depth Elevation

Earthquake Activity

City Distance Mag. Time & Date
Minimum magnitude displayed is 2.5.

Coastal Water Temperatures

Place Temperature

Stations

Nearby Weather Stations

Station Location Temp. Windchill Dew Point Humidity Wind Precip. Elev Updated Type